sensor_id;sensor_type;location;lat;lon;timestamp;P1;durP1;ratioP1;P2;durP2;ratioP2
45136;SDS011;30894;51.740;19.498;2023-04-15T00:01:28;6.05;;;2.42;;
45136;SDS011;30894;51.740;19.498;2023-04-15T00:03:56;2.45;;;2.03;;
45136;SDS011;30894;51.740;19.498;2023-04-15T00:06:22;4.40;;;2.20;;
45136;SDS011;30894;51.740;19.498;2023-04-15T00:08:49;4.53;;;1.70;;
45136;SDS011;30894;51.740;19.498;2023-04-15T00:11:15;4.63;;;2.13;;
45136;SDS011;30894;51.740;19.498;2023-04-15T00:13:43;1.20;;;1.10;;
45136;SDS011;30894;51.740;19.498;2023-04-15T00:16:09;7.40;;;1.75;;
45136;SDS011;30894;51.740;19.498;2023-04-15T00:18:36;1.48;;;0.93;;
45136;SDS011;30894;51.740;19.498;2023-04-15T00:21:03;5.13;;;2.58;;
45136;SDS011;30894;51.740;19.498;2023-04-15T00:23:30;5.55;;;2.22;;
45136;SDS011;30894;51.740;19.498;2023-04-15T00:25:56;5.65;;;1.05;;
45136;SDS011;30894;51.740;19.498;2023-04-15T00:28:22;4.03;;;1.70;;
45136;SDS011;30894;51.740;19.498;2023-04-15T00:30:48;8.02;;;2.83;;
45136;SDS011;30894;51.740;19.498;2023-04-15T00:33:16;4.22;;;2.70;;
45136;SDS011;30894;51.740;19.498;2023-04-15T00:35:42;4.03;;;2.58;;
45136;SDS011;30894;51.740;19.498;2023-04-15T00:38:09;2.38;;;1.77;;
45136;SDS011;30894;51.740;19.498;2023-04-15T00:40:35;2.22;;;1.92;;
45136;SDS011;30894;51.740;19.498;2023-04-15T00:43:02;5.75;;;2.10;;
45136;SDS011;30894;51.740;19.498;2023-04-15T00:45:28;3.55;;;2.13;;
45136;SDS011;30894;51.740;19.498;2023-04-15T00:47:55;2.85;;;1.55;;
45136;SDS011;30894;51.740;19.498;2023-04-15T00:50:21;6.13;;;2.10;;
45136;SDS011;30894;51.740;19.498;2023-04-15T00:52:47;4.68;;;1.85;;
45136;SDS011;30894;51.740;19.498;2023-04-15T00:55:13;4.28;;;1.67;;
45136;SDS011;30894;51.740;19.498;2023-04-15T00:57:40;2.70;;;1.25;;
45136;SDS011;30894;51.740;19.498;2023-04-15T01:00:06;3.17;;;1.98;;
45136;SDS011;30894;51.740;19.498;2023-04-15T01:02:34;2.75;;;1.63;;
45136;SDS011;30894;51.740;19.498;2023-04-15T01:05:01;4.60;;;1.85;;
45136;SDS011;30894;51.740;19.498;2023-04-15T01:07:28;6.03;;;2.67;;
45136;SDS011;30894;51.740;19.498;2023-04-15T01:09:56;4.15;;;2.47;;
45136;SDS011;30894;51.740;19.498;2023-04-15T01:12:23;8.05;;;2.90;;
45136;SDS011;30894;51.740;19.498;2023-04-15T01:14:52;4.30;;;2.53;;
45136;SDS011;30894;51.740;19.498;2023-04-15T01:17:20;4.15;;;2.03;;
45136;SDS011;30894;51.740;19.498;2023-04-15T01:19:47;2.40;;;2.05;;
45136;SDS011;30894;51.740;19.498;2023-04-15T01:22:13;3.92;;;1.17;;
45136;SDS011;30894;51.740;19.498;2023-04-15T01:24:40;2.47;;;1.88;;
45136;SDS011;30894;51.740;19.498;2023-04-15T01:27:10;4.53;;;2.47;;
45136;SDS011;30894;51.740;19.498;2023-04-15T01:29:37;4.50;;;2.25;;
45136;SDS011;30894;51.740;19.498;2023-04-15T01:32:04;3.45;;;1.85;;
45136;SDS011;30894;51.740;19.498;2023-04-15T01:34:30;6.43;;;2.08;;
45136;SDS011;30894;51.740;19.498;2023-04-15T01:36:56;5.80;;;1.75;;
45136;SDS011;30894;51.740;19.498;2023-04-15T01:39:22;3.13;;;1.48;;
45136;SDS011;30894;51.740;19.498;2023-04-15T01:41:48;5.57;;;2.63;;
45136;SDS011;30894;51.740;19.498;2023-04-15T01:44:14;3.10;;;2.15;;
45136;SDS011;30894;51.740;19.498;2023-04-15T01:46:40;1.05;;;0.90;;
45136;SDS011;30894;51.740;19.498;2023-04-15T01:49:06;3.85;;;1.25;;
45136;SDS011;30894;51.740;19.498;2023-04-15T01:51:33;5.75;;;2.50;;
45136;SDS011;30894;51.740;19.498;2023-04-15T01:53:58;2.60;;;1.77;;
45136;SDS011;30894;51.740;19.498;2023-04-15T01:56:25;6.07;;;2.67;;
45136;SDS011;30894;51.740;19.498;2023-04-15T01:58:51;3.05;;;1.80;;
45136;SDS011;30894;51.740;19.498;2023-04-15T02:01:18;3.80;;;2.03;;
45136;SDS011;30894;51.740;19.498;2023-04-15T02:03:44;1.50;;;0.98;;
45136;SDS011;30894;51.740;19.498;2023-04-15T02:06:11;2.97;;;1.70;;
45136;SDS011;30894;51.740;19.498;2023-04-15T02:08:37;3.85;;;2.42;;
45136;SDS011;30894;51.740;19.498;2023-04-15T02:11:04;1.55;;;1.30;;
45136;SDS011;30894;51.740;19.498;2023-04-15T02:13:30;3.88;;;2.20;;
45136;SDS011;30894;51.740;19.498;2023-04-15T02:15:56;6.78;;;2.10;;
45136;SDS011;30894;51.740;19.498;2023-04-15T02:18:23;5.60;;;2.60;;
45136;SDS011;30894;51.740;19.498;2023-04-15T02:20:50;6.18;;;2.65;;
45136;SDS011;30894;51.740;19.498;2023-04-15T02:23:17;4.78;;;2.25;;
45136;SDS011;30894;51.740;19.498;2023-04-15T02:25:43;4.05;;;2.35;;
45136;SDS011;30894;51.740;19.498;2023-04-15T02:28:09;2.92;;;1.00;;
45136;SDS011;30894;51.740;19.498;2023-04-15T02:30:36;3.60;;;2.05;;
45136;SDS011;30894;51.740;19.498;2023-04-15T02:33:02;2.63;;;1.83;;
45136;SDS011;30894;51.740;19.498;2023-04-15T02:35:28;2.75;;;1.70;;
45136;SDS011;30894;51.740;19.498;2023-04-15T02:37:54;3.45;;;1.88;;
45136;SDS011;30894;51.740;19.498;2023-04-15T02:40:21;3.90;;;1.90;;
45136;SDS011;30894;51.740;19.498;2023-04-15T02:42:46;5.72;;;3.22;;
45136;SDS011;30894;51.740;19.498;2023-04-15T02:45:13;17.38;;;3.17;;
45136;SDS011;30894;51.740;19.498;2023-04-15T02:47:39;7.25;;;3.15;;
45136;SDS011;30894;51.740;19.498;2023-04-15T02:50:10;2.58;;;1.85;;
45136;SDS011;30894;51.740;19.498;2023-04-15T02:52:40;5.40;;;2.85;;
45136;SDS011;30894;51.740;19.498;2023-04-15T02:55:07;4.43;;;2.42;;
45136;SDS011;30894;51.740;19.498;2023-04-15T02:57:34;7.25;;;3.33;;
45136;SDS011;30894;51.740;19.498;2023-04-15T03:00:05;2.60;;;2.00;;
45136;SDS011;30894;51.740;19.498;2023-04-15T03:02:34;3.70;;;2.58;;
45136;SDS011;30894;51.740;19.498;2023-04-15T03:05:01;4.53;;;2.72;;
45136;SDS011;30894;51.740;19.498;2023-04-15T03:07:28;4.43;;;2.58;;
45136;SDS011;30894;51.740;19.498;2023-04-15T03:09:55;2.88;;;2.05;;
45136;SDS011;30894;51.740;19.498;2023-04-15T03:12:22;2.90;;;1.77;;
45136;SDS011;30894;51.740;19.498;2023-04-15T03:14:48;5.03;;;2.25;;
45136;SDS011;30894;51.740;19.498;2023-04-15T03:17:14;2.97;;;1.83;;
45136;SDS011;30894;51.740;19.498;2023-04-15T03:19:40;3.53;;;1.75;;
45136;SDS011;30894;51.740;19.498;2023-04-15T03:22:06;7.30;;;3.03;;
45136;SDS011;30894;51.740;19.498;2023-04-15T03:24:33;4.57;;;2.80;;
45136;SDS011;30894;51.740;19.498;2023-04-15T03:26:59;3.53;;;2.40;;
45136;SDS011;30894;51.740;19.498;2023-04-15T03:29:26;5.18;;;2.60;;
45136;SDS011;30894;51.740;19.498;2023-04-15T03:31:52;2.42;;;1.63;;
45136;SDS011;30894;51.740;19.498;2023-04-15T03:34:18;3.50;;;2.30;;
45136;SDS011;30894;51.740;19.498;2023-04-15T03:36:45;5.97;;;2.28;;
45136;SDS011;30894;51.740;19.498;2023-04-15T03:39:11;4.25;;;1.52;;
45136;SDS011;30894;51.740;19.498;2023-04-15T03:41:37;4.95;;;2.78;;
45136;SDS011;30894;51.740;19.498;2023-04-15T03:44:04;3.10;;;1.95;;
45136;SDS011;30894;51.740;19.498;2023-04-15T03:46:29;3.90;;;2.63;;
45136;SDS011;30894;51.740;19.498;2023-04-15T03:48:59;3.38;;;2.10;;
45136;SDS011;30894;51.740;19.498;2023-04-15T03:51:25;3.13;;;2.08;;
45136;SDS011;30894;51.740;19.498;2023-04-15T03:53:51;3.00;;;1.73;;
45136;SDS011;30894;51.740;19.498;2023-04-15T03:56:17;1.42;;;0.80;;
45136;SDS011;30894;51.740;19.498;2023-04-15T03:58:43;1.25;;;0.82;;
45136;SDS011;30894;51.740;19.498;2023-04-15T04:01:10;2.03;;;1.42;;
45136;SDS011;30894;51.740;19.498;2023-04-15T04:03:37;1.35;;;1.05;;
45136;SDS011;30894;51.740;19.498;2023-04-15T04:06:06;6.10;;;1.40;;
45136;SDS011;30894;51.740;19.498;2023-04-15T04:08:43;0.65;;;0.60;;
45136;SDS011;30894;51.740;19.498;2023-04-15T04:11:10;1.25;;;1.13;;
45136;SDS011;30894;51.740;19.498;2023-04-15T04:13:37;2.40;;;1.05;;
45136;SDS011;30894;51.740;19.498;2023-04-15T04:16:03;0.90;;;0.75;;
45136;SDS011;30894;51.740;19.498;2023-04-15T04:18:32;2.50;;;0.95;;
45136;SDS011;30894;51.740;19.498;2023-04-15T04:20:58;3.28;;;1.40;;
45136;SDS011;30894;51.740;19.498;2023-04-15T04:23:25;1.90;;;1.10;;
45136;SDS011;30894;51.740;19.498;2023-04-15T04:25:51;1.85;;;1.35;;
45136;SDS011;30894;51.740;19.498;2023-04-15T04:28:18;2.78;;;1.17;;
45136;SDS011;30894;51.740;19.498;2023-04-15T04:30:47;1.27;;;0.98;;
45136;SDS011;30894;51.740;19.498;2023-04-15T04:33:19;1.40;;;1.20;;
45136;SDS011;30894;51.740;19.498;2023-04-15T04:35:48;0.70;;;0.60;;
45136;SDS011;30894;51.740;19.498;2023-04-15T04:38:14;3.28;;;0.80;;
45136;SDS011;30894;51.740;19.498;2023-04-15T04:40:40;0.68;;;0.50;;
45136;SDS011;30894;51.740;19.498;2023-04-15T04:43:07;0.98;;;0.90;;
45136;SDS011;30894;51.740;19.498;2023-04-15T04:45:33;1.98;;;1.52;;
45136;SDS011;30894;51.740;19.498;2023-04-15T04:48:20;0.70;;;0.65;;
45136;SDS011;30894;51.740;19.498;2023-04-15T04:50:46;0.80;;;0.80;;
45136;SDS011;30894;51.740;19.498;2023-04-15T04:53:25;8.35;;;1.52;;
45136;SDS011;30894;51.740;19.498;2023-04-15T04:55:55;1.17;;;0.93;;
45136;SDS011;30894;51.740;19.498;2023-04-15T04:58:21;2.00;;;0.88;;
45136;SDS011;30894;51.740;19.498;2023-04-15T05:00:47;2.78;;;1.90;;
45136;SDS011;30894;51.740;19.498;2023-04-15T05:03:13;0.70;;;0.68;;
45136;SDS011;30894;51.740;19.498;2023-04-15T05:05:40;1.77;;;0.82;;
45136;SDS011;30894;51.740;19.498;2023-04-15T05:08:06;0.35;;;0.35;;
45136;SDS011;30894;51.740;19.498;2023-04-15T05:10:32;0.98;;;0.65;;
45136;SDS011;30894;51.740;19.498;2023-04-15T05:12:58;1.17;;;1.08;;
45136;SDS011;30894;51.740;19.498;2023-04-15T05:15:24;1.00;;;0.90;;
45136;SDS011;30894;51.740;19.498;2023-04-15T05:17:50;1.05;;;0.88;;
45136;SDS011;30894;51.740;19.498;2023-04-15T05:20:17;1.83;;;1.52;;
45136;SDS011;30894;51.740;19.498;2023-04-15T05:22:44;1.35;;;0.80;;
45136;SDS011;30894;51.740;19.498;2023-04-15T05:25:10;0.57;;;0.57;;
45136;SDS011;30894;51.740;19.498;2023-04-15T05:27:41;2.13;;;1.10;;
45136;SDS011;30894;51.740;19.498;2023-04-15T05:30:11;2.88;;;0.85;;
45136;SDS011;30894;51.740;19.498;2023-04-15T05:32:37;1.75;;;1.08;;
45136;SDS011;30894;51.740;19.498;2023-04-15T05:35:04;0.60;;;0.60;;
45136;SDS011;30894;51.740;19.498;2023-04-15T05:37:30;2.03;;;1.20;;
45136;SDS011;30894;51.740;19.498;2023-04-15T05:39:56;1.17;;;0.80;;
45136;SDS011;30894;51.740;19.498;2023-04-15T05:42:22;3.60;;;1.17;;
45136;SDS011;30894;51.740;19.498;2023-04-15T05:44:49;3.47;;;1.40;;
45136;SDS011;30894;51.740;19.498;2023-04-15T05:47:15;1.23;;;0.73;;
45136;SDS011;30894;51.740;19.498;2023-04-15T05:49:41;0.65;;;0.65;;
45136;SDS011;30894;51.740;19.498;2023-04-15T05:52:07;0.95;;;0.63;;
45136;SDS011;30894;51.740;19.498;2023-04-15T05:54:33;1.30;;;1.20;;
45136;SDS011;30894;51.740;19.498;2023-04-15T05:56:59;0.47;;;0.47;;
45136;SDS011;30894;51.740;19.498;2023-04-15T05:59:29;1.10;;;0.95;;
45136;SDS011;30894;51.740;19.498;2023-04-15T06:01:55;0.55;;;0.45;;
45136;SDS011;30894;51.740;19.498;2023-04-15T06:04:22;0.93;;;0.90;;
45136;SDS011;30894;51.740;19.498;2023-04-15T06:06:48;2.53;;;1.48;;
45136;SDS011;30894;51.740;19.498;2023-04-15T06:09:14;1.15;;;0.77;;
45136;SDS011;30894;51.740;19.498;2023-04-15T06:11:40;1.33;;;0.52;;
45136;SDS011;30894;51.740;19.498;2023-04-15T06:14:06;1.38;;;0.98;;
45136;SDS011;30894;51.740;19.498;2023-04-15T06:16:32;1.55;;;0.90;;
45136;SDS011;30894;51.740;19.498;2023-04-15T06:19:00;4.10;;;1.25;;
45136;SDS011;30894;51.740;19.498;2023-04-15T06:21:27;0.47;;;0.43;;
45136;SDS011;30894;51.740;19.498;2023-04-15T06:23:55;1.77;;;1.35;;
45136;SDS011;30894;51.740;19.498;2023-04-15T06:26:21;2.25;;;1.30;;
45136;SDS011;30894;51.740;19.498;2023-04-15T06:28:47;3.33;;;1.55;;
45136;SDS011;30894;51.740;19.498;2023-04-15T06:31:14;3.38;;;1.13;;
45136;SDS011;30894;51.740;19.498;2023-04-15T06:33:40;1.05;;;0.95;;
45136;SDS011;30894;51.740;19.498;2023-04-15T06:36:07;1.80;;;0.93;;
45136;SDS011;30894;51.740;19.498;2023-04-15T06:38:33;1.80;;;1.38;;
45136;SDS011;30894;51.740;19.498;2023-04-15T06:40:59;1.20;;;1.00;;
45136;SDS011;30894;51.740;19.498;2023-04-15T06:43:25;0.93;;;0.70;;
45136;SDS011;30894;51.740;19.498;2023-04-15T06:45:51;2.10;;;1.40;;
45136;SDS011;30894;51.740;19.498;2023-04-15T06:48:20;1.65;;;1.15;;
45136;SDS011;30894;51.740;19.498;2023-04-15T06:51:05;1.83;;;1.15;;
45136;SDS011;30894;51.740;19.498;2023-04-15T06:53:31;2.30;;;1.30;;
45136;SDS011;30894;51.740;19.498;2023-04-15T06:55:59;1.42;;;1.05;;
45136;SDS011;30894;51.740;19.498;2023-04-15T06:58:25;1.92;;;1.08;;
45136;SDS011;30894;51.740;19.498;2023-04-15T07:00:51;1.52;;;1.00;;
45136;SDS011;30894;51.740;19.498;2023-04-15T07:03:17;0.82;;;0.82;;
45136;SDS011;30894;51.740;19.498;2023-04-15T07:05:43;1.05;;;0.75;;
45136;SDS011;30894;51.740;19.498;2023-04-15T07:08:09;1.17;;;0.93;;
45136;SDS011;30894;51.740;19.498;2023-04-15T07:10:37;1.63;;;1.10;;
45136;SDS011;30894;51.740;19.498;2023-04-15T07:13:06;1.50;;;0.90;;
45136;SDS011;30894;51.740;19.498;2023-04-15T07:15:33;0.82;;;0.82;;
45136;SDS011;30894;51.740;19.498;2023-04-15T07:17:59;2.40;;;1.15;;
45136;SDS011;30894;51.740;19.498;2023-04-15T07:20:26;3.38;;;1.23;;
45136;SDS011;30894;51.740;19.498;2023-04-15T07:22:52;0.80;;;0.80;;
45136;SDS011;30894;51.740;19.498;2023-04-15T07:25:19;1.25;;;1.15;;
45136;SDS011;30894;51.740;19.498;2023-04-15T07:27:45;1.63;;;1.17;;
45136;SDS011;30894;51.740;19.498;2023-04-15T07:30:11;1.90;;;1.45;;
45136;SDS011;30894;51.740;19.498;2023-04-15T07:32:38;1.20;;;0.95;;
45136;SDS011;30894;51.740;19.498;2023-04-15T07:35:06;2.75;;;1.00;;
45136;SDS011;30894;51.740;19.498;2023-04-15T07:37:34;0.90;;;0.80;;
45136;SDS011;30894;51.740;19.498;2023-04-15T07:40:00;0.90;;;0.90;;
45136;SDS011;30894;51.740;19.498;2023-04-15T07:42:28;0.40;;;0.38;;
45136;SDS011;30894;51.740;19.498;2023-04-15T07:44:55;1.05;;;0.82;;
45136;SDS011;30894;51.740;19.498;2023-04-15T07:47:21;3.38;;;1.17;;
45136;SDS011;30894;51.740;19.498;2023-04-15T07:49:47;2.45;;;0.93;;
45136;SDS011;30894;51.740;19.498;2023-04-15T07:52:15;1.85;;;0.80;;
45136;SDS011;30894;51.740;19.498;2023-04-15T07:54:41;1.67;;;0.85;;
45136;SDS011;30894;51.740;19.498;2023-04-15T07:57:07;6.28;;;1.55;;
45136;SDS011;30894;51.740;19.498;2023-04-15T07:59:34;2.38;;;1.60;;
45136;SDS011;30894;51.740;19.498;2023-04-15T08:02:00;6.68;;;1.40;;
45136;SDS011;30894;51.740;19.498;2023-04-15T08:04:26;1.23;;;0.98;;
45136;SDS011;30894;51.740;19.498;2023-04-15T08:06:52;1.63;;;1.08;;
45136;SDS011;30894;51.740;19.498;2023-04-15T08:09:19;1.30;;;1.20;;
45136;SDS011;30894;51.740;19.498;2023-04-15T08:11:51;1.75;;;1.17;;
45136;SDS011;30894;51.740;19.498;2023-04-15T08:14:38;2.10;;;1.08;;
45136;SDS011;30894;51.740;19.498;2023-04-15T08:17:04;5.32;;;1.27;;
45136;SDS011;30894;51.740;19.498;2023-04-15T08:19:31;4.47;;;1.48;;
45136;SDS011;30894;51.740;19.498;2023-04-15T08:21:58;2.47;;;1.50;;
45136;SDS011;30894;51.740;19.498;2023-04-15T08:24:27;1.45;;;0.98;;
45136;SDS011;30894;51.740;19.498;2023-04-15T08:26:55;3.10;;;1.42;;
45136;SDS011;30894;51.740;19.498;2023-04-15T08:29:22;2.03;;;1.17;;
45136;SDS011;30894;51.740;19.498;2023-04-15T08:31:48;2.28;;;1.42;;
45136;SDS011;30894;51.740;19.498;2023-04-15T08:34:14;3.55;;;1.80;;
45136;SDS011;30894;51.740;19.498;2023-04-15T08:36:45;4.22;;;1.83;;
45136;SDS011;30894;51.740;19.498;2023-04-15T08:39:12;2.28;;;1.27;;
45136;SDS011;30894;51.740;19.498;2023-04-15T08:41:47;1.08;;;1.00;;
45136;SDS011;30894;51.740;19.498;2023-04-15T08:44:25;3.00;;;1.33;;
45136;SDS011;30894;51.740;19.498;2023-04-15T08:46:59;1.13;;;1.02;;
45136;SDS011;30894;51.740;19.498;2023-04-15T08:49:27;2.63;;;1.52;;
45136;SDS011;30894;51.740;19.498;2023-04-15T08:51:54;3.25;;;1.55;;
45136;SDS011;30894;51.740;19.498;2023-04-15T08:54:23;1.98;;;1.30;;
45136;SDS011;30894;51.740;19.498;2023-04-15T08:56:50;1.92;;;1.10;;
45136;SDS011;30894;51.740;19.498;2023-04-15T08:59:18;2.00;;;1.35;;
45136;SDS011;30894;51.740;19.498;2023-04-15T09:01:47;3.25;;;1.55;;
45136;SDS011;30894;51.740;19.498;2023-04-15T09:04:15;2.72;;;1.70;;
45136;SDS011;30894;51.740;19.498;2023-04-15T09:06:45;2.53;;;1.65;;
45136;SDS011;30894;51.740;19.498;2023-04-15T09:09:30;7.03;;;2.00;;
45136;SDS011;30894;51.740;19.498;2023-04-15T09:12:04;2.50;;;1.60;;
45136;SDS011;30894;51.740;19.498;2023-04-15T09:14:31;3.05;;;1.33;;
45136;SDS011;30894;51.740;19.498;2023-04-15T09:17:02;1.40;;;1.15;;
45136;SDS011;30894;51.740;19.498;2023-04-15T09:19:29;2.33;;;1.70;;
45136;SDS011;30894;51.740;19.498;2023-04-15T09:21:58;4.45;;;2.20;;
45136;SDS011;30894;51.740;19.498;2023-04-15T09:24:24;2.25;;;1.40;;
45136;SDS011;30894;51.740;19.498;2023-04-15T09:27:01;7.10;;;2.38;;
45136;SDS011;30894;51.740;19.498;2023-04-15T09:29:28;9.35;;;2.53;;
45136;SDS011;30894;51.740;19.498;2023-04-15T09:31:54;4.53;;;2.55;;
45136;SDS011;30894;51.740;19.498;2023-04-15T09:34:20;3.72;;;2.40;;
45136;SDS011;30894;51.740;19.498;2023-04-15T09:36:59;1.55;;;1.30;;
45136;SDS011;30894;51.740;19.498;2023-04-15T09:39:26;1.73;;;1.38;;
45136;SDS011;30894;51.740;19.498;2023-04-15T09:42:07;0.75;;;0.75;;
45136;SDS011;30894;51.740;19.498;2023-04-15T09:44:34;5.55;;;2.30;;
45136;SDS011;30894;51.740;19.498;2023-04-15T09:47:00;2.08;;;1.25;;
45136;SDS011;30894;51.740;19.498;2023-04-15T09:49:26;5.25;;;1.95;;
45136;SDS011;30894;51.740;19.498;2023-04-15T09:51:56;1.48;;;1.30;;
45136;SDS011;30894;51.740;19.498;2023-04-15T09:54:35;1.48;;;1.25;;
45136;SDS011;30894;51.740;19.498;2023-04-15T09:57:06;8.18;;;1.60;;
45136;SDS011;30894;51.740;19.498;2023-04-15T09:59:34;6.60;;;2.17;;
45136;SDS011;30894;51.740;19.498;2023-04-15T10:04:54;1.35;;;1.08;;
45136;SDS011;30894;51.740;19.498;2023-04-15T10:07:35;4.72;;;1.80;;
45136;SDS011;30894;51.740;19.498;2023-04-15T10:10:09;1.92;;;1.75;;
45136;SDS011;30894;51.740;19.498;2023-04-15T10:12:39;3.90;;;1.05;;
45136;SDS011;30894;51.740;19.498;2023-04-15T10:15:06;2.50;;;1.40;;
45136;SDS011;30894;51.740;19.498;2023-04-15T10:20:08;1.70;;;1.58;;
45136;SDS011;30894;51.740;19.498;2023-04-15T10:22:37;4.28;;;1.80;;
45136;SDS011;30894;51.740;19.498;2023-04-15T10:25:05;1.80;;;1.40;;
45136;SDS011;30894;51.740;19.498;2023-04-15T10:27:32;1.80;;;1.48;;
45136;SDS011;30894;51.740;19.498;2023-04-15T10:29:59;1.55;;;0.80;;
45136;SDS011;30894;51.740;19.498;2023-04-15T10:32:27;2.83;;;1.08;;
45136;SDS011;30894;51.740;19.498;2023-04-15T10:34:54;0.65;;;0.57;;
45136;SDS011;30894;51.740;19.498;2023-04-15T10:37:21;0.85;;;0.63;;
45136;SDS011;30894;51.740;19.498;2023-04-15T10:39:58;0.98;;;0.60;;
45136;SDS011;30894;51.740;19.498;2023-04-15T10:42:32;0.77;;;0.47;;
45136;SDS011;30894;51.740;19.498;2023-04-15T10:44:59;0.90;;;0.75;;
45136;SDS011;30894;51.740;19.498;2023-04-15T10:47:25;0.98;;;0.65;;
45136;SDS011;30894;51.740;19.498;2023-04-15T10:49:56;0.70;;;0.57;;
45136;SDS011;30894;51.740;19.498;2023-04-15T10:52:25;1.30;;;0.63;;
45136;SDS011;30894;51.740;19.498;2023-04-15T10:55:13;0.85;;;0.80;;
45136;SDS011;30894;51.740;19.498;2023-04-15T10:57:43;2.00;;;0.95;;
45136;SDS011;30894;51.740;19.498;2023-04-15T11:02:47;0.90;;;0.50;;
45136;SDS011;30894;51.740;19.498;2023-04-15T11:05:52;0.57;;;0.57;;
45136;SDS011;30894;51.740;19.498;2023-04-15T11:08:18;0.77;;;0.60;;
45136;SDS011;30894;51.740;19.498;2023-04-15T11:13:15;1.13;;;0.73;;
45136;SDS011;30894;51.740;19.498;2023-04-15T11:15:46;2.65;;;1.23;;
45136;SDS011;30894;51.740;19.498;2023-04-15T11:18:17;2.67;;;1.30;;
45136;SDS011;30894;51.740;19.498;2023-04-15T11:20:56;1.58;;;0.90;;
45136;SDS011;30894;51.740;19.498;2023-04-15T11:23:45;0.43;;;0.32;;
45136;SDS011;30894;51.740;19.498;2023-04-15T11:26:12;1.17;;;0.82;;
45136;SDS011;30894;51.740;19.498;2023-04-15T11:28:39;1.95;;;0.85;;
45136;SDS011;30894;51.740;19.498;2023-04-15T11:31:11;2.58;;;0.77;;
45136;SDS011;30894;51.740;19.498;2023-04-15T11:33:52;2.35;;;1.17;;
45136;SDS011;30894;51.740;19.498;2023-04-15T11:36:28;0.73;;;0.70;;
45136;SDS011;30894;51.740;19.498;2023-04-15T11:38:56;0.60;;;0.60;;
45136;SDS011;30894;51.740;19.498;2023-04-15T11:41:23;5.53;;;0.80;;
45136;SDS011;30894;51.740;19.498;2023-04-15T11:43:50;0.80;;;0.52;;
45136;SDS011;30894;51.740;19.498;2023-04-15T11:46:17;1.05;;;0.40;;
45136;SDS011;30894;51.740;19.498;2023-04-15T11:48:44;0.50;;;0.45;;
45136;SDS011;30894;51.740;19.498;2023-04-15T11:51:12;3.30;;;0.47;;
45136;SDS011;30894;51.740;19.498;2023-04-15T11:53:40;0.75;;;0.32;;
45136;SDS011;30894;51.740;19.498;2023-04-15T11:56:18;0.35;;;0.35;;
45136;SDS011;30894;51.740;19.498;2023-04-15T11:58:56;1.52;;;0.93;;
45136;SDS011;30894;51.740;19.498;2023-04-15T12:01:33;3.08;;;0.40;;
45136;SDS011;30894;51.740;19.498;2023-04-15T12:04:10;0.88;;;0.70;;
45136;SDS011;30894;51.740;19.498;2023-04-15T12:06:47;0.57;;;0.47;;
45136;SDS011;30894;51.740;19.498;2023-04-15T12:09:16;1.17;;;0.55;;
45136;SDS011;30894;51.740;19.498;2023-04-15T12:11:49;1.15;;;0.70;;
45136;SDS011;30894;51.740;19.498;2023-04-15T12:16:53;0.50;;;0.50;;
45136;SDS011;30894;51.740;19.498;2023-04-15T12:19:26;3.60;;;0.60;;
45136;SDS011;30894;51.740;19.498;2023-04-15T12:21:56;0.70;;;0.70;;
45136;SDS011;30894;51.740;19.498;2023-04-15T12:24:24;1.23;;;0.55;;
45136;SDS011;30894;51.740;19.498;2023-04-15T12:26:52;1.38;;;0.95;;
45136;SDS011;30894;51.740;19.498;2023-04-15T12:29:24;0.98;;;0.88;;
45136;SDS011;30894;51.740;19.498;2023-04-15T12:31:54;2.28;;;0.90;;
45136;SDS011;30894;51.740;19.498;2023-04-15T12:34:29;0.32;;;0.30;;
45136;SDS011;30894;51.740;19.498;2023-04-15T12:37:02;1.60;;;0.90;;
45136;SDS011;30894;51.740;19.498;2023-04-15T12:39:39;0.55;;;0.45;;
45136;SDS011;30894;51.740;19.498;2023-04-15T12:42:08;0.88;;;0.80;;
45136;SDS011;30894;51.740;19.498;2023-04-15T12:44:35;1.85;;;0.40;;
45136;SDS011;30894;51.740;19.498;2023-04-15T12:47:02;0.75;;;0.65;;
45136;SDS011;30894;51.740;19.498;2023-04-15T12:49:29;0.68;;;0.68;;
45136;SDS011;30894;51.740;19.498;2023-04-15T12:51:57;2.13;;;0.80;;
45136;SDS011;30894;51.740;19.498;2023-04-15T12:54:25;3.22;;;1.63;;
45136;SDS011;30894;51.740;19.498;2023-04-15T12:56:52;0.90;;;0.70;;
45136;SDS011;30894;51.740;19.498;2023-04-15T12:59:19;1.67;;;0.93;;
45136;SDS011;30894;51.740;19.498;2023-04-15T13:01:51;2.58;;;1.02;;
45136;SDS011;30894;51.740;19.498;2023-04-15T13:04:18;1.88;;;0.65;;
45136;SDS011;30894;51.740;19.498;2023-04-15T13:06:45;1.17;;;0.85;;
45136;SDS011;30894;51.740;19.498;2023-04-15T13:09:14;1.40;;;1.00;;
45136;SDS011;30894;51.740;19.498;2023-04-15T13:11:41;1.95;;;1.45;;
45136;SDS011;30894;51.740;19.498;2023-04-15T13:14:07;12.57;;;2.80;;
45136;SDS011;30894;51.740;19.498;2023-04-15T13:16:36;3.25;;;2.08;;
45136;SDS011;30894;51.740;19.498;2023-04-15T13:19:02;3.20;;;1.30;;
45136;SDS011;30894;51.740;19.498;2023-04-15T13:21:29;5.40;;;1.38;;
45136;SDS011;30894;51.740;19.498;2023-04-15T13:23:59;2.38;;;1.42;;
45136;SDS011;30894;51.740;19.498;2023-04-15T13:26:25;2.40;;;0.95;;
45136;SDS011;30894;51.740;19.498;2023-04-15T13:28:52;3.38;;;1.55;;
45136;SDS011;30894;51.740;19.498;2023-04-15T13:31:18;1.15;;;1.05;;
45136;SDS011;30894;51.740;19.498;2023-04-15T13:33:44;4.88;;;1.20;;
45136;SDS011;30894;51.740;19.498;2023-04-15T13:36:13;5.68;;;1.42;;
45136;SDS011;30894;51.740;19.498;2023-04-15T13:38:42;4.15;;;1.52;;
45136;SDS011;30894;51.740;19.498;2023-04-15T13:41:08;1.40;;;1.13;;
45136;SDS011;30894;51.740;19.498;2023-04-15T13:43:34;1.83;;;1.20;;
45136;SDS011;30894;51.740;19.498;2023-04-15T13:46:01;8.00;;;2.30;;
45136;SDS011;30894;51.740;19.498;2023-04-15T13:48:27;9.73;;;1.50;;
45136;SDS011;30894;51.740;19.498;2023-04-15T13:50:59;3.47;;;1.58;;
45136;SDS011;30894;51.740;19.498;2023-04-15T13:53:25;4.93;;;1.67;;
45136;SDS011;30894;51.740;19.498;2023-04-15T13:55:52;2.85;;;1.95;;
45136;SDS011;30894;51.740;19.498;2023-04-15T13:58:18;2.05;;;1.48;;
45136;SDS011;30894;51.740;19.498;2023-04-15T14:00:44;6.95;;;1.92;;
45136;SDS011;30894;51.740;19.498;2023-04-15T14:03:11;1.23;;;0.98;;
45136;SDS011;30894;51.740;19.498;2023-04-15T14:05:40;1.92;;;1.13;;
45136;SDS011;30894;51.740;19.498;2023-04-15T14:08:06;2.58;;;1.13;;
45136;SDS011;30894;51.740;19.498;2023-04-15T14:10:33;2.40;;;1.15;;
45136;SDS011;30894;51.740;19.498;2023-04-15T14:13:00;4.38;;;1.58;;
45136;SDS011;30894;51.740;19.498;2023-04-15T14:15:26;2.65;;;1.40;;
45136;SDS011;30894;51.740;19.498;2023-04-15T14:17:52;2.28;;;1.70;;
45136;SDS011;30894;51.740;19.498;2023-04-15T14:20:20;2.53;;;1.27;;
45136;SDS011;30894;51.740;19.498;2023-04-15T14:22:46;3.10;;;1.15;;
45136;SDS011;30894;51.740;19.498;2023-04-15T14:25:12;2.35;;;1.33;;
45136;SDS011;30894;51.740;19.498;2023-04-15T14:27:38;3.33;;;2.30;;
45136;SDS011;30894;51.740;19.498;2023-04-15T14:30:04;5.63;;;2.33;;
45136;SDS011;30894;51.740;19.498;2023-04-15T14:32:31;4.13;;;1.75;;
45136;SDS011;30894;51.740;19.498;2023-04-15T14:34:57;3.20;;;1.17;;
45136;SDS011;30894;51.740;19.498;2023-04-15T14:37:23;1.55;;;1.30;;
45136;SDS011;30894;51.740;19.498;2023-04-15T14:39:51;2.72;;;1.70;;
45136;SDS011;30894;51.740;19.498;2023-04-15T14:42:17;6.40;;;1.45;;
45136;SDS011;30894;51.740;19.498;2023-04-15T14:44:43;4.50;;;2.10;;
45136;SDS011;30894;51.740;19.498;2023-04-15T14:47:10;6.47;;;2.60;;
45136;SDS011;30894;51.740;19.498;2023-04-15T14:49:36;3.22;;;1.95;;
45136;SDS011;30894;51.740;19.498;2023-04-15T14:52:03;3.28;;;1.70;;